createdAt,value
2018-07-16T00:00:23.153Z,98489.00
2018-07-16T00:02:51.898Z,98497.00
2018-07-16T00:05:20.471Z,98501.00
2018-07-16T00:07:49.126Z,98505.00
2018-07-16T00:10:17.778Z,98506.00
2018-07-16T00:12:46.391Z,98509.00
2018-07-16T00:15:15.359Z,98506.00
2018-07-16T00:17:44.071Z,98502.00
2018-07-16T00:20:12.678Z,98501.00
2018-07-16T00:22:41.318Z,98501.00
2018-07-16T00:25:09.925Z,98499.00
2018-07-16T00:27:38.550Z,98491.00
2018-07-16T00:30:07.237Z,98484.00
2018-07-16T00:32:35.845Z,98482.00
2018-07-16T00:35:04.443Z,98483.00
2018-07-16T00:37:33.016Z,98486.00
2018-07-16T00:40:01.655Z,98477.00
2018-07-16T00:42:30.264Z,98472.00
2018-07-16T00:44:58.745Z,98482.00
2018-07-16T00:47:27.198Z,98479.00
2018-07-16T00:49:55.888Z,98477.00
2018-07-16T00:52:24.515Z,98482.00
2018-07-16T00:54:53.145Z,98477.00
2018-07-16T00:57:21.846Z,98476.00
2018-07-16T00:59:50.575Z,98476.00
2018-07-16T01:02:19.326Z,98462.00
2018-07-16T01:04:47.794Z,98466.00
2018-07-16T01:07:16.518Z,98461.00
2018-07-16T01:09:45.570Z,98456.00
2018-07-16T01:12:14.221Z,98456.00
2018-07-16T01:14:42.831Z,98457.00
2018-07-16T01:17:11.636Z,98454.00
2018-07-16T01:19:40.302Z,98453.00
2018-07-16T01:22:09.041Z,98450.00
2018-07-16T01:24:37.458Z,98451.00
2018-07-16T01:27:06.092Z,98455.00
2018-07-16T01:29:36.759Z,98443.00
2018-07-16T01:32:05.484Z,98452.00
2018-07-16T01:34:34.158Z,98454.00
2018-07-16T01:37:02.750Z,98455.00
2018-07-16T01:39:31.350Z,98449.00
2018-07-16T01:41:59.943Z,98449.00
2018-07-16T01:44:28.427Z,98447.00
2018-07-16T01:46:57.123Z,98435.00
2018-07-16T01:49:25.747Z,98433.00
2018-07-16T01:51:54.420Z,98435.00
2018-07-16T01:54:23.120Z,98436.00
2018-07-16T01:56:51.788Z,98439.00
2018-07-16T01:59:20.392Z,98436.00
2018-07-16T02:01:48.980Z,98441.00
2018-07-16T02:04:17.668Z,98438.00
2018-07-16T02:06:46.258Z,98440.00
2018-07-16T02:09:14.983Z,98440.00
2018-07-16T02:11:43.668Z,98438.00
2018-07-16T02:14:12.413Z,98444.00
2018-07-16T02:16:41.083Z,98447.00
2018-07-16T02:19:09.760Z,98446.00
2018-07-16T02:21:38.368Z,98447.00
2018-07-16T02:24:06.970Z,98446.00
2018-07-16T02:26:35.646Z,98445.00
2018-07-16T02:29:04.243Z,98438.00
2018-07-16T02:31:32.663Z,98441.00
2018-07-16T02:34:01.243Z,98442.00
2018-07-16T02:36:29.844Z,98439.00
2018-07-16T02:38:58.471Z,98451.00
2018-07-16T02:41:27.055Z,98446.00
2018-07-16T02:43:55.665Z,98447.00
2018-07-16T02:46:24.258Z,98449.00
2018-07-16T02:48:52.853Z,98454.00
2018-07-16T02:51:21.446Z,98457.00
2018-07-16T02:53:50.075Z,98450.00
2018-07-16T02:56:18.628Z,98448.00
2018-07-16T02:58:47.237Z,98449.00
2018-07-16T03:01:15.701Z,98459.00
2018-07-16T03:03:44.321Z,98465.00
2018-07-16T03:06:13.019Z,98471.00
2018-07-16T03:08:41.683Z,98468.00
2018-07-16T03:11:10.109Z,98471.00
2018-07-16T03:13:38.729Z,98474.00
2018-07-16T03:16:07.426Z,98475.00
2018-07-16T03:18:35.891Z,98474.00
2018-07-16T03:21:04.576Z,98473.00
2018-07-16T03:23:33.168Z,98474.00
2018-07-16T03:26:01.764Z,98477.00
2018-07-16T03:28:30.156Z,98479.00
2018-07-16T03:30:58.783Z,98473.00
2018-07-16T03:33:27.478Z,98475.00
2018-07-16T03:35:56.115Z,98475.00
2018-07-16T03:38:24.760Z,98472.00
2018-07-16T03:40:53.345Z,98472.00
2018-07-16T03:43:21.936Z,98475.00
2018-07-16T03:45:50.599Z,98471.00
2018-07-16T03:48:19.345Z,98474.00
2018-07-16T03:50:47.950Z,98476.00
2018-07-16T03:53:16.591Z,98474.00
2018-07-16T03:55:45.007Z,98476.00
2018-07-16T03:58:13.680Z,98479.00
2018-07-16T04:00:42.393Z,98481.00
2018-07-16T04:03:11.333Z,98484.00
2018-07-16T04:05:39.773Z,98487.00
2018-07-16T04:08:08.418Z,98485.00
2018-07-16T04:10:37.089Z,98491.00
2018-07-16T04:13:05.775Z,98494.00
2018-07-16T04:15:34.236Z,98489.00
2018-07-16T04:18:06.632Z,98496.00
2018-07-16T04:20:35.276Z,98495.00
2018-07-16T04:23:03.996Z,98500.00
2018-07-16T04:25:32.631Z,98496.00
2018-07-16T04:28:01.216Z,98490.00
2018-07-16T04:30:29.875Z,98493.00
2018-07-16T04:32:59.876Z,98494.00
2018-07-16T04:35:28.531Z,98491.00
2018-07-16T04:37:57.322Z,98493.00
2018-07-16T04:40:25.900Z,98489.00
2018-07-16T04:42:54.683Z,98486.00
2018-07-16T04:45:23.375Z,98486.00
2018-07-16T04:47:51.799Z,98490.00
2018-07-16T04:50:20.456Z,98487.00
2018-07-16T04:52:49.095Z,98483.00
2018-07-16T04:55:17.815Z,98490.00
2018-07-16T04:57:46.357Z,98491.00
2018-07-16T05:00:15.053Z,98489.00
2018-07-16T05:02:43.675Z,98490.00
2018-07-16T05:05:12.140Z,98488.00
2018-07-16T05:07:40.808Z,98481.00
2018-07-16T05:10:09.503Z,98479.00
2018-07-16T05:12:38.135Z,98479.00
2018-07-16T05:15:06.748Z,98479.00
2018-07-16T05:17:35.433Z,98477.00
2018-07-16T05:20:04.175Z,98475.00
2018-07-16T05:22:32.873Z,98480.00
2018-07-16T05:25:01.569Z,98484.00
2018-07-16T05:27:30.258Z,98491.00
2018-07-16T05:29:58.937Z,98492.00
2018-07-16T05:32:27.705Z,98502.00
2018-07-16T05:34:56.280Z,98499.00
2018-07-16T05:37:24.878Z,98506.00
2018-07-16T05:39:53.534Z,98497.00
2018-07-16T05:42:21.976Z,98505.00
2018-07-16T05:44:50.688Z,98504.00
2018-07-16T05:47:19.474Z,98508.00
2018-07-16T05:49:48.151Z,98500.00
2018-07-16T05:52:16.854Z,98501.00
2018-07-16T05:54:45.340Z,98500.00
2018-07-16T05:57:13.938Z,98503.00
2018-07-16T05:59:42.400Z,98515.00
2018-07-16T06:02:11.130Z,98514.00
2018-07-16T06:04:39.806Z,98513.00
2018-07-16T06:07:08.651Z,98516.00
2018-07-16T06:09:37.554Z,98520.00
2018-07-16T06:12:06.411Z,98519.00
2018-07-16T06:14:35.079Z,98515.00
2018-07-16T06:17:03.763Z,98509.00
2018-07-16T06:19:32.425Z,98511.00
2018-07-16T06:22:01.116Z,98520.00
2018-07-16T06:24:29.742Z,98527.00
2018-07-16T06:26:58.419Z,98527.00
2018-07-16T06:29:27.091Z,98527.00
2018-07-16T06:31:55.841Z,98518.00
2018-07-16T06:34:24.688Z,98518.00
2018-07-16T06:36:53.356Z,98516.00
2018-07-16T06:39:22.050Z,98518.00
2018-07-16T06:41:50.726Z,98521.00
2018-07-16T06:44:19.490Z,98519.00
2018-07-16T06:46:48.226Z,98516.00
2018-07-16T06:49:16.981Z,98521.00
2018-07-16T06:51:45.596Z,98526.00
2018-07-16T06:54:14.174Z,98525.00
2018-07-16T06:56:42.794Z,98524.00
2018-07-16T06:59:11.214Z,98530.00
2018-07-16T07:01:39.821Z,98533.00
2018-07-16T07:04:08.424Z,98532.00
2018-07-16T07:06:37.060Z,98527.00
2018-07-16T07:09:06.598Z,98521.00
2018-07-16T07:11:40.534Z,98515.00
2018-07-16T07:14:09.099Z,98510.00
2018-07-16T07:16:37.991Z,98503.00
2018-07-16T07:19:06.679Z,98503.00
2018-07-16T07:21:35.314Z,98494.00
2018-07-16T07:24:04.038Z,98488.00
2018-07-16T07:26:33.186Z,98478.00
2018-07-16T07:29:01.885Z,98476.00
2018-07-16T07:31:31.816Z,98481.00
2018-07-16T07:34:00.555Z,98481.00
2018-07-16T07:36:29.344Z,98478.00
2018-07-16T07:38:57.793Z,98479.00
2018-07-16T07:41:26.440Z,98479.00
2018-07-16T07:43:55.211Z,98474.00
2018-07-16T07:46:23.824Z,98466.00
2018-07-16T07:48:52.495Z,98453.00
2018-07-16T07:51:21.258Z,98439.00
2018-07-16T07:53:49.925Z,98384.00
2018-07-16T07:56:18.418Z,98449.00
2018-07-16T07:58:47.107Z,98455.00
2018-07-16T08:01:15.756Z,98449.00
2018-07-16T08:03:45.227Z,98452.00
2018-07-16T08:06:13.964Z,98451.00
2018-07-16T08:08:42.794Z,98455.00
2018-07-16T08:11:11.654Z,98441.00
2018-07-16T08:13:40.295Z,98436.00
2018-07-16T08:16:08.884Z,98437.00
2018-07-16T08:18:38.515Z,98436.00
2018-07-16T08:21:07.417Z,98439.00
2018-07-16T08:23:36.059Z,98435.00
2018-07-16T08:26:04.766Z,98440.00
2018-07-16T08:28:33.575Z,98447.00
2018-07-16T08:31:02.245Z,98443.00
2018-07-16T08:33:31.048Z,98432.00
2018-07-16T08:35:59.684Z,98447.00
2018-07-16T08:38:28.339Z,98447.00
2018-07-16T08:40:56.951Z,98438.00
2018-07-16T08:43:25.719Z,98443.00
2018-07-16T08:45:54.566Z,98444.00
2018-07-16T08:48:23.639Z,98440.00
2018-07-16T08:50:52.401Z,98438.00
2018-07-16T08:53:21.134Z,98435.00
2018-07-16T08:55:49.779Z,98439.00
2018-07-16T08:58:18.389Z,98438.00
2018-07-16T09:00:47.172Z,98441.00
2018-07-16T09:03:15.891Z,98451.00
2018-07-16T09:05:44.604Z,98446.00
2018-07-16T09:08:13.349Z,98447.00
2018-07-16T09:10:42.892Z,98460.00
2018-07-16T09:13:11.645Z,98462.00
2018-07-16T09:15:40.195Z,98461.00
2018-07-16T09:18:08.903Z,98458.00
2018-07-16T09:20:37.788Z,98457.00
2018-07-16T09:23:06.571Z,98461.00
2018-07-16T09:25:35.323Z,98467.00
2018-07-16T09:28:03.981Z,98469.00
2018-07-16T09:30:32.758Z,98481.00
2018-07-16T09:33:01.220Z,98470.00
2018-07-16T09:35:29.846Z,98471.00
2018-07-16T09:37:58.651Z,98469.00
2018-07-16T09:40:27.823Z,98458.00
2018-07-16T09:42:57.348Z,98455.00
2018-07-16T09:45:26.254Z,98459.00
2018-07-16T09:47:55.015Z,98466.00
2018-07-16T09:50:23.871Z,98469.00
2018-07-16T09:52:52.619Z,98444.00
2018-07-16T09:55:21.527Z,98431.00
2018-07-16T09:57:50.998Z,98437.00
2018-07-16T10:00:24.651Z,98430.00
2018-07-16T10:02:53.298Z,98430.00
2018-07-16T10:11:41.877Z,98431.00
2018-07-16T10:14:10.601Z,98441.00
2018-07-16T10:16:39.442Z,98434.00
2018-07-16T10:19:13.776Z,98455.00
2018-07-16T10:21:42.646Z,98460.00
2018-07-16T10:24:12.066Z,98459.00
2018-07-16T10:26:40.988Z,98457.00
2018-07-16T10:29:09.811Z,98450.00
2018-07-16T10:31:38.389Z,98450.00
2018-07-16T10:34:06.831Z,98447.00
2018-07-16T10:36:35.561Z,98459.00
2018-07-16T10:39:05.383Z,98455.00
2018-07-16T10:41:34.111Z,98453.00
2018-07-16T10:44:03.091Z,98447.00
2018-07-16T10:46:31.866Z,98461.00
2018-07-16T10:49:00.549Z,98429.00
2018-07-16T10:51:29.257Z,98422.00
2018-07-16T10:53:57.911Z,98421.00
2018-07-16T10:56:27.246Z,98421.00
2018-07-16T10:58:56.007Z,98432.00
2018-07-16T11:01:24.876Z,98443.00
2018-07-16T11:03:53.647Z,98438.00
2018-07-16T11:06:22.908Z,98448.00
2018-07-16T11:08:53.517Z,98438.00
2018-07-16T11:11:22.667Z,98425.00
2018-07-16T11:13:51.504Z,98418.00
2018-07-16T11:16:20.398Z,98407.00
2018-07-16T11:18:49.205Z,98415.00
2018-07-16T11:21:24.075Z,98440.00
2018-07-16T11:23:52.836Z,98439.00
2018-07-16T11:26:21.667Z,98445.00
2018-07-16T11:28:50.498Z,98444.00
2018-07-16T11:31:19.258Z,98436.00
2018-07-16T11:33:48.684Z,98425.00
2018-07-16T11:36:17.439Z,98427.00
2018-07-16T11:38:46.182Z,98427.00
2018-07-16T11:41:14.936Z,98422.00
2018-07-16T11:43:43.773Z,98415.00
2018-07-16T11:46:12.866Z,98412.00
2018-07-16T11:48:41.799Z,98412.00
2018-07-16T11:51:10.573Z,98421.00
2018-07-16T11:53:39.296Z,98425.00
2018-07-16T11:56:08.093Z,98422.00
2018-07-16T11:58:37.012Z,98396.00
2018-07-16T12:01:05.916Z,98392.00
2018-07-16T12:03:39.106Z,98386.00
2018-07-16T12:06:13.591Z,98379.00
2018-07-16T12:08:43.286Z,98370.00
2018-07-16T12:11:12.657Z,98366.00
2018-07-16T12:13:41.520Z,98383.00
2018-07-16T12:16:10.256Z,98386.00
2018-07-16T12:18:38.934Z,98381.00
2018-07-16T12:21:07.951Z,98361.00
2018-07-16T12:23:37.018Z,98348.00
2018-07-16T12:26:06.280Z,98342.00
2018-07-16T12:28:35.841Z,98342.00
2018-07-16T12:31:04.631Z,98325.00
2018-07-16T12:33:33.526Z,98341.00
2018-07-16T12:38:57.158Z,98333.00
2018-07-16T12:44:19.179Z,98345.00
2018-07-16T12:46:48.075Z,98333.00
2018-07-16T12:49:17.873Z,98337.00
2018-07-16T12:51:46.992Z,98317.00
2018-07-16T12:54:16.512Z,98321.00
2018-07-16T12:56:50.651Z,98307.00
2018-07-16T12:59:19.303Z,98314.00
2018-07-16T13:01:48.069Z,98302.00
2018-07-16T13:04:18.048Z,98301.00
2018-07-16T13:06:47.098Z,98299.00
2018-07-16T13:09:15.711Z,98290.00
2018-07-16T13:11:44.521Z,98281.00
2018-07-16T13:14:13.338Z,98275.00
2018-07-16T13:16:42.282Z,98250.00
2018-07-16T13:19:13.360Z,98233.00
2018-07-16T13:21:42.152Z,98235.00
2018-07-16T13:24:10.856Z,98218.00
2018-07-16T13:26:39.848Z,98216.00
2018-07-16T13:29:08.809Z,98232.00
2018-07-16T13:31:37.531Z,98235.00
2018-07-16T13:34:06.271Z,98256.00
2018-07-16T13:36:34.963Z,98247.00
2018-07-16T13:39:04.655Z,98250.00
2018-07-16T13:41:34.585Z,98247.00
2018-07-16T13:44:03.469Z,98245.00
2018-07-16T13:46:33.449Z,98231.00
2018-07-16T13:49:02.236Z,98201.00
2018-07-16T13:51:31.406Z,98163.00
2018-07-16T13:54:00.605Z,98176.00
2018-07-16T13:56:29.433Z,98207.00
2018-07-16T13:58:58.258Z,98195.00
2018-07-16T14:01:50.173Z,98183.00
2018-07-16T14:04:18.884Z,98189.00
2018-07-16T14:06:53.983Z,98209.00
2018-07-16T14:09:22.791Z,98226.00
2018-07-16T14:11:51.715Z,98215.00
2018-07-16T14:14:20.550Z,98197.00
2018-07-16T14:19:50.474Z,98124.00
2018-07-16T14:22:19.327Z,98165.00
2018-07-16T14:24:48.477Z,98186.00
2018-07-16T14:27:17.246Z,98200.00
2018-07-16T14:29:46.062Z,98192.00
2018-07-16T14:35:21.042Z,98196.00
2018-07-16T14:46:44.145Z,98191.00
2018-07-16T14:49:12.886Z,98171.00
2018-07-16T14:51:41.828Z,98170.00
2018-07-16T14:54:12.416Z,98160.00
2018-07-16T14:56:41.216Z,98157.00
2018-07-16T14:59:10.222Z,98157.00
2018-07-16T15:01:50.414Z,98147.00
2018-07-16T15:04:19.339Z,98148.00
2018-07-16T15:06:48.478Z,98132.00
2018-07-16T15:09:26.297Z,98132.00
2018-07-16T15:11:56.207Z,98127.00
2018-07-16T15:14:26.528Z,98110.00
2018-07-16T15:16:55.454Z,98122.00
2018-07-16T15:19:36.882Z,98101.00
2018-07-16T15:22:05.727Z,98079.00
2018-07-16T15:24:34.608Z,98110.00
2018-07-16T15:27:03.485Z,98095.00
2018-07-16T15:29:32.167Z,98089.00
2018-07-16T15:32:02.136Z,98077.00
2018-07-16T15:34:30.923Z,98074.00
2018-07-16T15:36:59.703Z,98087.00
2018-07-16T15:39:28.431Z,98079.00
2018-07-16T15:41:58.111Z,98076.00
2018-07-16T15:44:26.830Z,98075.00
2018-07-16T15:47:01.456Z,98059.00
2018-07-16T15:49:30.567Z,98066.00
2018-07-16T15:52:03.328Z,98064.00
2018-07-16T15:54:32.657Z,98062.00
2018-07-16T15:57:01.239Z,98078.00
2018-07-16T15:59:30.217Z,98084.00
2018-07-16T16:02:04.977Z,98093.00
2018-07-16T16:13:33.321Z,98114.00
2018-07-16T16:16:02.747Z,98108.00
2018-07-16T16:18:31.579Z,98109.00
2018-07-16T16:21:00.804Z,98120.00
2018-07-16T16:23:29.565Z,98125.00
2018-07-16T16:25:58.250Z,98142.00
2018-07-16T16:28:30.018Z,98128.00
2018-07-16T16:30:58.885Z,98124.00
2018-07-16T16:33:29.295Z,98118.00
2018-07-16T16:35:58.102Z,98110.00
2018-07-16T16:38:26.807Z,98091.00
2018-07-16T16:40:55.960Z,98099.00
2018-07-16T16:43:24.791Z,98095.00
2018-07-16T16:46:22.540Z,98094.00
2018-07-16T16:48:51.248Z,98088.00
2018-07-16T16:51:20.311Z,98077.00
2018-07-16T16:53:50.084Z,98086.00
2018-07-16T16:56:18.926Z,98085.00
2018-07-16T16:58:47.627Z,98080.00
2018-07-16T17:01:44.944Z,98074.00
2018-07-16T17:04:45.305Z,98090.00
2018-07-16T17:07:25.823Z,98091.00
2018-07-16T17:09:54.715Z,98088.00
2018-07-16T17:12:23.607Z,98088.00
2018-07-16T17:14:52.268Z,98085.00
2018-07-16T17:17:21.008Z,98093.00
2018-07-16T17:19:49.573Z,98100.00
2018-07-16T17:22:18.325Z,98100.00
2018-07-16T17:24:46.943Z,98099.00
2018-07-16T17:27:15.693Z,98094.00
2018-07-16T17:29:44.378Z,98101.00
2018-07-16T17:32:13.016Z,98091.00
2018-07-16T17:34:41.803Z,98091.00
2018-07-16T17:37:10.455Z,98092.00
2018-07-16T17:39:39.386Z,98102.00
2018-07-16T17:42:08.067Z,98106.00
2018-07-16T17:44:36.878Z,98098.00
2018-07-16T17:47:05.556Z,98102.00
2018-07-16T17:49:34.010Z,98097.00
2018-07-16T17:52:02.599Z,98097.00
2018-07-16T17:54:31.342Z,98104.00
2018-07-16T17:57:00.975Z,98093.00
2018-07-16T17:59:29.633Z,98086.00
2018-07-16T18:01:58.368Z,98084.00
2018-07-16T18:04:27.138Z,98073.00
2018-07-16T18:06:55.739Z,98070.00
2018-07-16T18:09:24.516Z,98063.00
2018-07-16T18:11:53.206Z,98067.00
2018-07-16T18:14:21.921Z,98066.00
2018-07-16T18:16:50.573Z,98064.00
2018-07-16T18:19:19.278Z,98062.00
2018-07-16T18:21:47.819Z,98049.00
2018-07-16T18:24:16.817Z,98036.00
2018-07-16T18:26:45.498Z,98029.00
2018-07-16T18:29:14.418Z,98025.00
2018-07-16T18:31:43.128Z,98023.00
2018-07-16T18:34:11.810Z,98029.00
2018-07-16T18:36:40.479Z,98017.00
2018-07-16T18:39:09.731Z,97999.00
2018-07-16T18:41:38.403Z,98004.00
2018-07-16T18:44:07.126Z,98000.00
2018-07-16T18:46:35.759Z,98000.00
2018-07-16T18:49:04.590Z,98012.00
2018-07-16T18:51:33.328Z,98026.00
2018-07-16T18:54:01.943Z,98037.00
2018-07-16T18:56:30.731Z,98033.00
2018-07-16T18:58:59.595Z,98033.00
2018-07-16T19:01:28.322Z,98036.00
2018-07-16T19:03:57.024Z,98032.00
2018-07-16T19:06:25.964Z,98015.00
2018-07-16T19:08:54.658Z,97987.00
2018-07-16T19:11:23.413Z,97970.00
2018-07-16T19:13:52.178Z,97988.00
2018-07-16T19:16:21.015Z,98037.00
2018-07-16T19:18:49.830Z,98088.00
2018-07-16T19:21:18.485Z,98127.00
2018-07-16T19:23:47.458Z,98140.00
2018-07-16T19:26:17.781Z,98164.00
2018-07-16T19:28:46.577Z,98204.00
2018-07-16T19:31:16.526Z,98277.00
2018-07-16T19:33:45.418Z,98132.00
2018-07-16T19:36:14.335Z,98057.00
2018-07-16T19:38:43.375Z,98026.00
2018-07-16T19:41:12.060Z,98042.00
2018-07-16T19:43:41.636Z,98062.00
2018-07-16T19:46:10.509Z,98091.00
2018-07-16T19:48:39.247Z,98122.00
2018-07-16T19:51:08.305Z,98158.00
2018-07-16T19:53:37.181Z,98139.00
2018-07-16T19:56:06.009Z,98138.00
2018-07-16T19:58:35.254Z,98177.00
2018-07-16T20:01:03.932Z,98235.00
2018-07-16T20:03:39.776Z,98247.00
2018-07-16T20:06:17.959Z,98260.00
2018-07-16T20:08:48.443Z,98231.00
2018-07-16T20:11:18.267Z,98227.00
2018-07-16T20:13:47.172Z,98222.00
2018-07-16T20:16:15.876Z,98214.00
2018-07-16T20:18:44.391Z,98218.00
2018-07-16T20:21:13.262Z,98205.00
2018-07-16T20:23:42.078Z,98201.00
2018-07-16T20:26:11.539Z,98181.00
2018-07-16T20:28:41.167Z,98191.00
2018-07-16T20:31:09.892Z,98182.00
2018-07-16T20:33:38.940Z,98180.00
2018-07-16T20:36:07.961Z,98183.00
2018-07-16T20:38:36.993Z,98196.00
2018-07-16T20:41:06.354Z,98205.00
2018-07-16T20:43:35.804Z,98191.00
2018-07-16T20:46:05.824Z,98194.00
2018-07-16T20:48:34.497Z,98193.00
2018-07-16T20:51:03.965Z,98184.00
2018-07-16T20:53:32.943Z,98184.00
2018-07-16T20:56:01.766Z,98197.00
2018-07-16T20:58:31.204Z,98200.00
2018-07-16T21:01:00.741Z,98197.00
2018-07-16T21:03:29.630Z,98185.00
2018-07-16T21:05:59.659Z,98187.00
2018-07-16T21:08:28.756Z,98176.00
2018-07-16T21:10:58.039Z,98177.00
2018-07-16T21:13:27.298Z,98181.00
2018-07-16T21:15:56.773Z,98167.00
2018-07-16T21:18:26.068Z,98163.00
2018-07-16T21:20:54.929Z,98162.00
2018-07-16T21:23:23.700Z,98150.00
2018-07-16T21:25:52.485Z,98144.00
2018-07-16T21:28:21.266Z,98131.00
2018-07-16T21:30:50.367Z,98124.00
2018-07-16T21:33:19.146Z,98115.00
2018-07-16T21:35:48.188Z,98095.00
2018-07-16T21:38:16.923Z,98083.00
2018-07-16T21:40:45.564Z,98086.00
2018-07-16T21:43:14.230Z,98092.00
2018-07-16T21:45:43.018Z,98094.00
2018-07-16T21:48:11.775Z,98102.00
2018-07-16T21:50:40.334Z,98090.00
2018-07-16T21:53:09.490Z,98086.00
2018-07-16T21:55:38.510Z,98089.00
2018-07-16T21:58:08.956Z,98076.00
2018-07-16T22:00:38.833Z,98085.00
2018-07-16T22:03:11.658Z,98094.00
2018-07-16T22:05:41.141Z,98106.00
2018-07-16T22:08:10.651Z,98120.00
2018-07-16T22:10:39.528Z,98143.00
2018-07-16T22:13:08.413Z,98143.00
2018-07-16T22:15:37.280Z,98149.00
2018-07-16T22:18:06.588Z,98154.00
2018-07-16T22:20:35.355Z,98160.00
2018-07-16T22:23:04.297Z,98154.00
2018-07-16T22:25:33.122Z,98147.00
2018-07-16T22:28:01.910Z,98137.00
2018-07-16T22:30:30.745Z,98143.00
2018-07-16T22:32:59.539Z,97980.00
2018-07-16T22:35:28.350Z,98158.00
2018-07-16T22:37:57.595Z,98148.00
2018-07-16T22:40:26.478Z,98134.00
2018-07-16T22:42:55.299Z,98132.00
2018-07-16T22:45:24.098Z,98132.00
2018-07-16T22:47:53.285Z,98140.00
2018-07-16T22:50:22.038Z,98138.00
2018-07-16T22:52:50.700Z,98141.00
2018-07-16T22:55:20.757Z,98145.00
2018-07-16T22:57:49.463Z,98146.00
2018-07-16T23:00:18.172Z,98136.00
2018-07-16T23:02:46.891Z,98136.00
2018-07-16T23:05:15.607Z,98133.00
2018-07-16T23:07:44.337Z,98118.00
2018-07-16T23:10:13.098Z,98119.00
2018-07-16T23:12:41.818Z,98137.00
2018-07-16T23:15:10.557Z,98152.00
2018-07-16T23:17:39.222Z,98156.00
2018-07-16T23:20:08.063Z,98149.00
2018-07-16T23:22:54.563Z,98129.00
2018-07-16T23:25:23.320Z,98128.00
2018-07-16T23:27:52.915Z,98147.00
2018-07-16T23:30:21.613Z,98156.00
2018-07-16T23:32:50.292Z,98147.00
2018-07-16T23:35:18.982Z,98130.00
2018-07-16T23:37:47.712Z,98150.00
2018-07-16T23:40:16.410Z,98145.00
2018-07-16T23:42:44.883Z,98127.00
2018-07-16T23:45:14.011Z,98128.00
2018-07-16T23:47:42.692Z,98153.00
2018-07-16T23:50:11.376Z,98176.00
2018-07-16T23:52:40.699Z,98174.00
2018-07-16T23:55:09.343Z,98173.00
2018-07-16T23:57:37.810Z,98161.00
